Time;durP1;ratioP1;P1;durP2;ratioP2;P2;SDS_P1;SDS_P2;PMS_P1;PMS_P2;Temp;Humidity;BMP_temperature;BMP_pressure;BME280_temperature;BME280_humidity;BME280_pressure;Samples;Min_cycle;Max_cycle;Signal;HPM_P1;HPM_P2
2022/12/14 00:00:41;;;;;;;15.98;8.00;;;;;;;;;;4880847;29;20045;-60
2022/12/14 00:03:08;;;;;;;14.35;8.27;;;;;;;;;;4880138;29;20131;-60
2022/12/14 00:05:35;;;;;;;12.90;7.47;;;;;;;;;;4863131;29;20076;-60
2022/12/14 00:08:01;;;;;;;13.73;8.40;;;;;;;;;;4879950;29;20045;-59
2022/12/14 00:10:28;;;;;;;13.93;7.88;;;;;;;;;;4880252;29;20049;-61
2022/12/14 00:12:54;;;;;;;15.20;7.85;;;;;;;;;;4880475;29;20053;-60
2022/12/14 00:15:21;;;;;;;15.63;8.18;;;;;;;;;;4879938;29;20113;-59
2022/12/14 00:17:47;;;;;;;13.85;7.90;;;;;;;;;;4863696;29;20482;-60
2022/12/14 00:20:14;;;;;;;13.30;7.90;;;;;;;;;;4864519;29;20049;-59
2022/12/14 00:22:40;;;;;;;12.32;7.28;;;;;;;;;;4880213;29;20045;-61
2022/12/14 00:25:07;;;;;;;14.82;8.48;;;;;;;;;;4862682;29;20371;-60
2022/12/14 00:27:33;;;;;;;12.48;7.50;;;;;;;;;;4848064;29;20069;-60
2022/12/14 00:30:00;;;;;;;12.77;7.13;;;;;;;;;;4880161;29;20060;-60
2022/12/14 00:32:26;;;;;;;14.23;8.75;;;;;;;;;;4880168;29;20049;-61
2022/12/14 00:34:53;;;;;;;14.40;7.68;;;;;;;;;;4880150;29;20097;-59
2022/12/14 00:37:19;;;;;;;11.40;7.50;;;;;;;;;;4879350;29;20045;-60
2022/12/14 00:39:46;;;;;;;14.70;8.48;;;;;;;;;;4863091;29;20053;-59
2022/12/14 00:42:12;;;;;;;11.27;7.50;;;;;;;;;;4879607;29;20422;-60
2022/12/14 00:44:39;;;;;;;11.13;7.53;;;;;;;;;;4862578;29;20137;-60
2022/12/14 00:47:05;;;;;;;13.73;7.70;;;;;;;;;;4862530;29;20045;-59
2022/12/14 00:49:31;;;;;;;13.45;7.70;;;;;;;;;;4879589;29;20052;-61
2022/12/14 00:51:58;;;;;;;11.88;7.05;;;;;;;;;;4879047;29;20064;-60
2022/12/14 00:54:24;;;;;;;12.48;7.18;;;;;;;;;;4879850;29;20052;-61
2022/12/14 00:56:50;;;;;;;13.38;6.95;;;;;;;;;;4878943;29;20205;-59
2022/12/14 00:59:17;;;;;;;12.10;7.55;;;;;;;;;;4879246;29;20060;-61
2022/12/14 01:01:51;;;;;;;13.55;7.00;;;;;;;;;;4879001;29;20510;-60
2022/12/14 01:04:18;;;;;;;14.40;7.38;;;;;;;;;;4879519;29;20052;-61
2022/12/14 01:06:45;;;;;;;12.80;7.68;;;;;;;;;;4878759;29;20072;-60
2022/12/14 01:09:12;;;;;;;12.52;7.10;;;;;;;;;;4862131;29;20086;-59
2022/12/14 01:11:39;;;;;;;12.32;7.10;;;;;;;;;;4879162;29;20057;-62
2022/12/14 01:14:06;;;;;;;11.63;7.13;;;;;;;;;;4862491;29;20067;-61
2022/12/14 01:16:32;;;;;;;12.63;7.00;;;;;;;;;;4878843;29;20057;-61
2022/12/14 01:19:00;;;;;;;10.88;6.97;;;;;;;;;;4879293;29;20049;-61
2022/12/14 01:21:26;;;;;;;9.93;6.95;;;;;;;;;;4878670;29;20060;-61
2022/12/14 01:23:54;;;;;;;12.75;7.55;;;;;;;;;;4879210;29;20448;-61
2022/12/14 01:26:21;;;;;;;13.75;7.93;;;;;;;;;;4878305;29;20060;-61
2022/12/14 01:28:55;;;;;;;10.88;7.47;;;;;;;;;;4879441;29;20108;-63
2022/12/14 01:31:22;;;;;;;11.68;7.20;;;;;;;;;;4879024;29;20060;-61
2022/12/14 01:33:48;;;;;;;12.60;7.35;;;;;;;;;;4878828;29;20041;-61
2022/12/14 01:36:16;;;;;;;10.73;6.97;;;;;;;;;;4878199;29;20399;-61
2022/12/14 01:38:43;;;;;;;12.70;6.68;;;;;;;;;;4878626;29;20040;-61
2022/12/14 01:41:20;;;;;;;11.15;7.22;;;;;;;;;;4878301;29;20114;-61
2022/12/14 01:43:53;;;;;;;14.55;7.78;;;;;;;;;;4878884;29;20052;-61
2022/12/14 01:46:22;;;;;;;11.85;7.70;;;;;;;;;;4877909;29;20037;-62
2022/12/14 01:48:50;;;;;;;11.40;7.47;;;;;;;;;;4878604;29;20469;-60
2022/12/14 01:51:16;;;;;;;9.60;6.82;;;;;;;;;;4878349;29;20041;-60
2022/12/14 01:53:43;;;;;;;10.65;7.10;;;;;;;;;;4878336;29;20053;-61
2022/12/14 01:56:09;;;;;;;10.10;7.28;;;;;;;;;;4860897;29;20056;-61
2022/12/14 01:58:36;;;;;;;11.55;7.05;;;;;;;;;;4877543;29;20164;-61
2022/12/14 02:01:02;;;;;;;11.75;7.43;;;;;;;;;;4878123;29;20053;-61
2022/12/14 02:03:31;;;;;;;11.82;7.65;;;;;;;;;;4877525;29;20045;-61
2022/12/14 02:06:00;;;;;;;12.80;7.53;;;;;;;;;;4877005;29;20048;-61
2022/12/14 02:08:27;;;;;;;10.43;6.93;;;;;;;;;;4878108;29;20399;-61
2022/12/14 02:10:55;;;;;;;12.27;6.85;;;;;;;;;;4878148;29;20045;-61
2022/12/14 02:13:31;;;;;;;13.13;7.63;;;;;;;;;;4861468;29;20089;-61
2022/12/14 02:15:57;;;;;;;13.32;7.55;;;;;;;;;;4877433;29;20055;-61
2022/12/14 02:18:28;;;;;;;9.82;6.55;;;;;;;;;;4861353;29;20487;-61
2022/12/14 02:20:57;;;;;;;11.05;6.97;;;;;;;;;;4878017;29;20053;-61
2022/12/14 02:23:24;;;;;;;10.40;7.22;;;;;;;;;;4877911;29;20049;-61
2022/12/14 02:25:51;;;;;;;10.77;6.85;;;;;;;;;;4877571;29;20056;-61
2022/12/14 02:28:36;;;;;;;9.52;6.70;;;;;;;;;;4877899;29;20480;-61
2022/12/14 02:31:15;;;;;;;12.85;6.97;;;;;;;;;;4877975;29;20584;-61
2022/12/14 02:33:52;;;;;;;10.82;7.35;;;;;;;;;;4862147;29;20076;-59
2022/12/14 02:36:34;;;;;;;9.77;6.95;;;;;;;;;;4860808;29;20097;-60
2022/12/14 02:39:19;;;;;;;13.75;6.97;;;;;;;;;;4861216;29;20109;-60
2022/12/14 02:41:48;;;;;;;11.73;6.95;;;;;;;;;;4877687;29;20451;-60
2022/12/14 02:44:21;;;;;;;11.90;7.00;;;;;;;;;;4877761;29;20048;-60
2022/12/14 02:46:54;;;;;;;11.70;6.95;;;;;;;;;;4877296;29;20439;-61
2022/12/14 02:49:30;;;;;;;12.37;7.53;;;;;;;;;;4877884;29;20490;-61
2022/12/14 02:52:21;;;;;;;11.45;6.95;;;;;;;;;;4877429;29;20085;-61
2022/12/14 02:54:57;;;;;;;12.65;7.07;;;;;;;;;;4877810;29;20518;-61
2022/12/14 02:57:35;;;;;;;13.25;7.55;;;;;;;;;;4877410;29;20041;-61
2022/12/14 03:00:03;;;;;;;9.90;7.63;;;;;;;;;;4861132;29;20052;-61
2022/12/14 03:02:32;;;;;;;11.90;6.65;;;;;;;;;;4863205;29;20117;-61
2022/12/14 03:04:59;;;;;;;11.82;7.70;;;;;;;;;;4882940;29;20056;-61
2022/12/14 03:07:30;;;;;;;12.40;7.07;;;;;;;;;;4863993;29;20068;-60
2022/12/14 03:10:02;;;;;;;13.05;7.38;;;;;;;;;;4881086;29;20104;-61
2022/12/14 03:12:29;;;;;;;13.20;7.45;;;;;;;;;;4881454;29;20067;-61
2022/12/14 03:14:56;;;;;;;11.77;7.70;;;;;;;;;;4880986;29;20081;-61
2022/12/14 03:17:25;;;;;;;12.38;7.00;;;;;;;;;;4864243;29;20117;-61
2022/12/14 03:19:54;;;;;;;11.77;7.78;;;;;;;;;;4881044;29;20506;-61
2022/12/14 03:22:27;;;;;;;10.65;6.97;;;;;;;;;;4883507;29;20045;-61
2022/12/14 03:24:57;;;;;;;13.35;8.23;;;;;;;;;;4883926;29;20085;-62
2022/12/14 03:27:30;;;;;;;15.27;8.43;;;;;;;;;;4884108;29;20044;-59
2022/12/14 03:29:58;;;;;;;13.00;7.88;;;;;;;;;;4884668;29;20113;-60
2022/12/14 03:32:26;;;;;;;13.95;8.23;;;;;;;;;;4884790;29;20053;-59
2022/12/14 03:34:58;;;;;;;12.55;7.63;;;;;;;;;;4885642;29;20061;-60
2022/12/14 03:37:44;;;;;;;10.73;7.97;;;;;;;;;;4885037;29;20499;-59
2022/12/14 03:40:18;;;;;;;12.95;7.65;;;;;;;;;;4885074;29;20049;-58
2022/12/14 03:42:44;;;;;;;12.88;8.35;;;;;;;;;;4884370;29;20438;-59
2022/12/14 03:45:17;;;;;;;13.13;8.18;;;;;;;;;;4880199;29;20048;-59
2022/12/14 03:47:43;;;;;;;12.93;7.75;;;;;;;;;;4880792;29;20045;-59
2022/12/14 03:50:13;;;;;;;14.15;8.50;;;;;;;;;;4863778;29;20128;-58
2022/12/14 03:52:47;;;;;;;12.07;7.85;;;;;;;;;;4880687;29;20514;-58
2022/12/14 03:55:22;;;;;;;12.05;8.10;;;;;;;;;;4880026;29;20041;-59
2022/12/14 03:58:01;;;;;;;15.00;8.63;;;;;;;;;;4880800;29;20112;-64
2022/12/14 04:00:30;;;;;;;16.05;8.38;;;;;;;;;;4881278;29;20108;-59
2022/12/14 04:03:05;;;;;;;14.25;8.35;;;;;;;;;;4881330;29;20121;-59
2022/12/14 04:05:35;;;;;;;17.20;9.23;;;;;;;;;;4881501;29;20068;-61
2022/12/14 04:08:21;;;;;;;11.90;8.15;;;;;;;;;;4881378;29;20498;-60
2022/12/14 04:19:15;;;;;;;15.23;9.02;;;;;;;;;;4881183;29;20432;-60
2022/12/14 04:21:44;;;;;;;14.50;9.25;;;;;;;;;;4880033;29;20057;-61
2022/12/14 04:27:04;;;;;;;19.77;11.90;;;;;;;;;;4880548;29;20517;-61
2022/12/14 04:32:23;;;;;;;13.20;8.90;;;;;;;;;;4863690;29;20045;-61
2022/12/14 04:34:53;;;;;;;14.23;8.88;;;;;;;;;;4863765;29;20057;-61
2022/12/14 04:37:21;;;;;;;14.80;8.93;;;;;;;;;;4879923;29;20044;-61
2022/12/14 04:39:50;;;;;;;13.57;8.65;;;;;;;;;;4863869;29;20041;-61
2022/12/14 04:42:16;;;;;;;12.93;9.27;;;;;;;;;;4880597;29;20443;-60
2022/12/14 04:44:45;;;;;;;14.38;9.02;;;;;;;;;;4880468;29;20048;-61
2022/12/14 04:47:14;;;;;;;17.02;10.23;;;;;;;;;;4879723;29;20045;-60
2022/12/14 04:49:56;;;;;;;14.73;9.52;;;;;;;;;;4880293;29;20076;-61
2022/12/14 04:52:28;;;;;;;13.38;9.13;;;;;;;;;;4879953;29;20118;-60
2022/12/14 04:55:06;;;;;;;15.90;9.18;;;;;;;;;;4879756;29;20052;-62
2022/12/14 04:57:50;;;;;;;13.77;9.40;;;;;;;;;;4863063;29;20631;-61
2022/12/14 05:03:18;;;;;;;15.32;9.30;;;;;;;;;;5092931;23;19957;-60
2022/12/14 05:06:02;;;;;;;16.13;10.13;;;;;;;;;;4881009;29;20101;-60
2022/12/14 05:08:41;;;;;;;15.73;10.38;;;;;;;;;;4898452;29;20037;-60
2022/12/14 05:11:24;;;;;;;16.63;9.57;;;;;;;;;;4898236;29;20041;-61
2022/12/14 05:14:16;;;;;;;17.48;9.68;;;;;;;;;;4879688;29;20053;-60
2022/12/14 05:16:42;;;;;;;12.95;9.32;;;;;;;;;;4863281;29;20109;-60
2022/12/14 05:19:14;;;;;;;15.15;10.75;;;;;;;;;;4879632;29;20053;-61
2022/12/14 05:21:46;;;;;;;16.70;10.00;;;;;;;;;;4879638;29;20053;-60
2022/12/14 05:24:13;;;;;;;14.27;9.50;;;;;;;;;;4879333;29;20455;-61
2022/12/14 05:26:40;;;;;;;16.65;10.25;;;;;;;;;;4879105;29;20049;-60
2022/12/14 05:29:07;;;;;;;18.00;10.68;;;;;;;;;;4880863;29;20045;-60
2022/12/14 05:31:33;;;;;;;13.52;9.00;;;;;;;;;;4879337;29;20045;-62
2022/12/14 05:33:59;;;;;;;14.75;9.70;;;;;;;;;;4879628;29;20065;-60
2022/12/14 05:36:26;;;;;;;20.25;10.55;;;;;;;;;;4878889;29;20060;-60
2022/12/14 05:38:52;;;;;;;14.90;9.80;;;;;;;;;;4879160;29;20554;-59
2022/12/14 05:41:19;;;;;;;15.05;9.52;;;;;;;;;;4879426;29;20092;-60
2022/12/14 05:43:45;;;;;;;17.98;10.85;;;;;;;;;;4879769;29;20096;-59
2022/12/14 05:46:14;;;;;;;15.82;10.10;;;;;;;;;;4878737;29;20048;-59
2022/12/14 05:48:40;;;;;;;15.18;10.18;;;;;;;;;;4862566;29;20057;-60
2022/12/14 05:51:14;;;;;;;16.40;10.40;;;;;;;;;;4878540;29;20045;-61
2022/12/14 05:53:40;;;;;;;16.00;10.43;;;;;;;;;;4879165;29;20057;-60
2022/12/14 05:56:07;;;;;;;15.27;9.65;;;;;;;;;;4878929;29;20470;-61
2022/12/14 05:58:34;;;;;;;13.05;9.10;;;;;;;;;;4879267;29;20049;-63
2022/12/14 06:01:04;;;;;;;15.40;10.25;;;;;;;;;;4879011;29;20063;-61
2022/12/14 06:03:30;;;;;;;15.43;9.85;;;;;;;;;;4862118;29;20045;-60
2022/12/14 06:06:04;;;;;;;19.60;10.45;;;;;;;;;;4844436;29;20452;-63
2022/12/14 06:08:32;;;;;;;16.33;9.90;;;;;;;;;;4859798;29;20050;-62
2022/12/14 06:11:07;;;;;;;18.48;10.45;;;;;;;;;;4860001;29;20570;-62
2022/12/14 06:13:34;;;;;;;16.42;9.75;;;;;;;;;;4860588;29;20495;-64
2022/12/14 06:16:21;;;;;;;18.02;10.50;;;;;;;;;;4828029;29;20053;-63
2022/12/14 06:18:51;;;;;;;16.15;10.93;;;;;;;;;;4860367;29;20517;-63
2022/12/14 06:21:19;;;;;;;15.75;10.68;;;;;;;;;;4860101;29;20057;-62
2022/12/14 06:23:46;;;;;;;20.70;10.98;;;;;;;;;;4860182;29;20078;-62
2022/12/14 06:26:12;;;;;;;21.65;11.07;;;;;;;;;;4859853;29;20395;-62
2022/12/14 06:28:39;;;;;;;17.23;10.20;;;;;;;;;;4869333;29;20093;-62
2022/12/14 06:31:06;;;;;;;15.50;10.60;;;;;;;;;;4873526;29;20087;-63
2022/12/14 06:33:33;;;;;;;17.92;10.48;;;;;;;;;;4847529;29;20463;-63
2022/12/14 06:36:00;;;;;;;17.45;10.05;;;;;;;;;;4829007;29;20434;-63
2022/12/14 06:38:27;;;;;;;15.23;9.98;;;;;;;;;;4860476;29;20045;-63
2022/12/14 06:40:53;;;;;;;17.15;11.60;;;;;;;;;;4860430;29;20047;-62
2022/12/14 06:43:23;;;;;;;17.00;10.40;;;;;;;;;;4859438;29;20045;-62
2022/12/14 06:45:49;;;;;;;17.33;11.15;;;;;;;;;;4859465;29;20128;-63
2022/12/14 06:48:16;;;;;;;18.20;10.63;;;;;;;;;;4859962;29;20086;-63
2022/12/14 06:50:42;;;;;;;15.98;10.55;;;;;;;;;;4843532;29;20045;-63
2022/12/14 06:53:12;;;;;;;16.55;10.25;;;;;;;;;;4859933;29;20070;-63
2022/12/14 06:55:38;;;;;;;20.35;11.52;;;;;;;;;;4843028;29;20046;-62
2022/12/14 06:58:04;;;;;;;18.52;11.48;;;;;;;;;;4859776;29;20049;-59
2022/12/14 07:00:31;;;;;;;22.02;12.30;;;;;;;;;;4843206;29;20074;-58
2022/12/14 07:02:57;;;;;;;20.85;13.05;;;;;;;;;;4860021;29;20460;-58
2022/12/14 07:05:24;;;;;;;17.73;11.43;;;;;;;;;;4859420;29;20050;-56
2022/12/14 07:07:50;;;;;;;16.00;10.82;;;;;;;;;;4859836;29;20427;-58
2022/12/14 07:10:16;;;;;;;16.10;11.05;;;;;;;;;;4843401;29;20458;-59
2022/12/14 07:12:43;;;;;;;16.35;11.55;;;;;;;;;;4859988;29;20090;-58
2022/12/14 07:15:10;;;;;;;17.55;11.65;;;;;;;;;;4859175;29;20114;-58
2022/12/14 07:17:36;;;;;;;19.35;11.63;;;;;;;;;;4859734;29;20057;-59
2022/12/14 07:20:03;;;;;;;18.00;11.25;;;;;;;;;;4859489;29;20053;-59
2022/12/14 07:22:30;;;;;;;17.52;11.50;;;;;;;;;;4859558;29;20498;-59
2022/12/14 07:24:57;;;;;;;17.38;11.07;;;;;;;;;;4859095;29;20093;-59
2022/12/14 07:27:24;;;;;;;18.77;12.15;;;;;;;;;;4859577;29;20451;-58
2022/12/14 07:29:51;;;;;;;21.02;12.57;;;;;;;;;;4843118;29;20045;-59
2022/12/14 07:32:17;;;;;;;20.88;13.57;;;;;;;;;;4860040;29;20045;-59
2022/12/14 07:34:44;;;;;;;22.05;12.95;;;;;;;;;;4859424;29;20046;-58
2022/12/14 07:37:11;;;;;;;19.50;12.88;;;;;;;;;;4858884;29;20387;-57
2022/12/14 07:39:38;;;;;;;24.88;13.77;;;;;;;;;;4859700;29;20087;-59
2022/12/14 07:42:04;;;;;;;33.55;18.00;;;;;;;;;;4859479;29;20113;-58
2022/12/14 07:44:30;;;;;;;24.80;14.15;;;;;;;;;;4859360;29;20097;-59
2022/12/14 07:46:57;;;;;;;19.88;13.43;;;;;;;;;;4859121;29;20116;-60
2022/12/14 07:49:23;;;;;;;22.20;13.98;;;;;;;;;;4843023;29;20098;-59
2022/12/14 07:51:51;;;;;;;20.00;13.88;;;;;;;;;;4859384;29;20041;-58
2022/12/14 07:54:18;;;;;;;20.48;13.63;;;;;;;;;;4859135;29;20049;-59
2022/12/14 07:56:44;;;;;;;28.13;16.35;;;;;;;;;;4861699;29;20079;-59
2022/12/14 07:59:13;;;;;;;20.10;13.55;;;;;;;;;;4862505;29;20487;-59
2022/12/14 08:01:41;;;;;;;23.00;14.70;;;;;;;;;;4862443;29;20064;-59
2022/12/14 08:04:09;;;;;;;20.63;13.98;;;;;;;;;;4862567;29;20434;-59
2022/12/14 08:06:37;;;;;;;23.70;14.13;;;;;;;;;;4845239;29;20053;-59
2022/12/14 08:09:03;;;;;;;25.13;13.55;;;;;;;;;;4862411;29;20467;-59
2022/12/14 08:11:30;;;;;;;21.40;13.82;;;;;;;;;;4862709;29;20045;-59
2022/12/14 08:13:57;;;;;;;25.23;14.82;;;;;;;;;;4862300;29;20507;-58
2022/12/14 08:16:24;;;;;;;23.52;14.98;;;;;;;;;;4861723;29;20054;-59
2022/12/14 08:18:54;;;;;;;23.42;13.88;;;;;;;;;;4862227;29;20049;-59
2022/12/14 08:21:21;;;;;;;23.27;14.65;;;;;;;;;;4862257;29;20491;-59
2022/12/14 08:23:48;;;;;;;22.23;14.45;;;;;;;;;;4862244;29;20465;-58
2022/12/14 08:26:15;;;;;;;23.73;14.85;;;;;;;;;;4861844;29;20466;-58
2022/12/14 08:28:41;;;;;;;26.83;15.45;;;;;;;;;;4862242;29;20509;-58
2022/12/14 08:31:09;;;;;;;29.00;15.07;;;;;;;;;;4862077;29;20117;-58
2022/12/14 08:33:36;;;;;;;25.27;15.55;;;;;;;;;;4845431;29;20126;-57
2022/12/14 08:36:07;;;;;;;29.38;15.05;;;;;;;;;;4861241;29;20518;-59
2022/12/14 08:38:34;;;;;;;25.98;15.43;;;;;;;;;;4861864;29;20105;-59
2022/12/14 08:41:01;;;;;;;24.38;15.32;;;;;;;;;;4862086;29;20045;-58
2022/12/14 08:43:27;;;;;;;26.10;15.70;;;;;;;;;;4861780;29;20469;-58
2022/12/14 08:45:54;;;;;;;25.02;16.30;;;;;;;;;;4861273;29;20050;-57
2022/12/14 08:48:21;;;;;;;27.85;15.98;;;;;;;;;;4862033;29;20053;-59
2022/12/14 08:50:47;;;;;;;25.63;15.88;;;;;;;;;;4862556;29;20056;-59
2022/12/14 08:53:15;;;;;;;28.20;16.60;;;;;;;;;;4861846;29;20082;-60
2022/12/14 08:55:42;;;;;;;28.95;17.17;;;;;;;;;;4861567;29;20045;-58
2022/12/14 08:58:09;;;;;;;32.28;17.92;;;;;;;;;;4845391;29;20333;-59
2022/12/14 09:00:37;;;;;;;27.25;16.63;;;;;;;;;;4861681;29;20049;-60
2022/12/14 09:03:04;;;;;;;29.08;17.27;;;;;;;;;;4861590;29;20057;-59
2022/12/14 09:05:31;;;;;;;25.00;16.10;;;;;;;;;;4861013;29;20185;-59
2022/12/14 09:07:57;;;;;;;25.77;16.95;;;;;;;;;;4861318;29;20509;-59
2022/12/14 09:10:23;;;;;;;26.48;16.80;;;;;;;;;;4861378;29;20078;-59
2022/12/14 09:12:50;;;;;;;27.20;16.80;;;;;;;;;;4861545;29;20128;-58
2022/12/14 09:15:16;;;;;;;24.75;16.75;;;;;;;;;;4860856;29;20053;-58
2022/12/14 09:17:43;;;;;;;26.38;15.75;;;;;;;;;;4861657;29;20129;-57
2022/12/14 09:20:11;;;;;;;25.88;16.63;;;;;;;;;;4861210;29;20396;-57
2022/12/14 09:22:38;;;;;;;30.58;16.75;;;;;;;;;;4861166;29;20052;-57
2022/12/14 09:25:05;;;;;;;31.10;17.55;;;;;;;;;;4860489;29;20491;-57
2022/12/14 09:27:32;;;;;;;31.50;19.50;;;;;;;;;;4861014;29;20049;-59
2022/12/14 09:29:58;;;;;;;29.08;18.00;;;;;;;;;;4861120;29;20053;-60
2022/12/14 09:32:27;;;;;;;27.98;18.13;;;;;;;;;;4860838;29;20045;-58
2022/12/14 09:34:53;;;;;;;26.98;16.23;;;;;;;;;;4860856;29;20106;-58
2022/12/14 09:37:20;;;;;;;29.08;17.88;;;;;;;;;;4860471;29;20062;-59
2022/12/14 09:39:46;;;;;;;31.73;16.88;;;;;;;;;;4860945;29;20082;-58
2022/12/14 09:42:32;;;;;;;28.33;17.60;;;;;;;;;;4860770;29;20119;-58
2022/12/14 09:44:58;;;;;;;28.08;18.00;;;;;;;;;;4860267;29;20105;-58
2022/12/14 09:47:38;;;;;;;27.90;16.38;;;;;;;;;;4860613;29;20042;-58
2022/12/14 09:50:19;;;;;;;30.73;16.58;;;;;;;;;;4860819;29;20506;-59
2022/12/14 09:52:53;;;;;;;29.63;16.77;;;;;;;;;;4860459;29;20052;-59
2022/12/14 09:55:19;;;;;;;25.90;15.48;;;;;;;;;;4860145;29;20472;-58
2022/12/14 09:57:46;;;;;;;25.15;16.75;;;;;;;;;;4860681;29;20400;-59
2022/12/14 10:00:17;;;;;;;26.92;15.90;;;;;;;;;;4860443;29;20046;-58
2022/12/14 10:02:57;;;;;;;22.25;14.85;;;;;;;;;;4860211;29;20053;-59
2022/12/14 10:05:37;;;;;;;27.38;15.75;;;;;;;;;;4843063;29;20102;-59
2022/12/14 10:08:04;;;;;;;23.08;14.48;;;;;;;;;;4860435;29;20106;-59
2022/12/14 10:10:34;;;;;;;21.88;14.07;;;;;;;;;;4860413;29;20056;-59
2022/12/14 10:13:09;;;;;;;22.92;14.63;;;;;;;;;;4860535;29;20388;-59
2022/12/14 10:15:41;;;;;;;23.55;13.80;;;;;;;;;;4859685;29;20050;-59
2022/12/14 10:18:07;;;;;;;23.52;13.70;;;;;;;;;;4859381;29;20114;-59
2022/12/14 10:21:02;;;;;;;22.42;14.05;;;;;;;;;;4860617;29;20061;-60
2022/12/14 10:23:28;;;;;;;18.55;13.13;;;;;;;;;;4869598;29;20078;-60
2022/12/14 10:26:02;;;;;;;20.50;13.75;;;;;;;;;;4869254;29;20120;-58
2022/12/14 10:28:37;;;;;;;22.17;13.88;;;;;;;;;;4861601;29;20045;-59
2022/12/14 10:31:06;;;;;;;21.90;14.50;;;;;;;;;;4860780;29;20046;-60
2022/12/14 10:33:33;;;;;;;23.30;14.00;;;;;;;;;;4860678;29;20033;-59
2022/12/14 10:36:11;;;;;;;24.40;14.93;;;;;;;;;;4860106;29;20060;-60
2022/12/14 10:38:50;;;;;;;23.60;14.95;;;;;;;;;;4860288;29;20053;-60
2022/12/14 10:41:34;;;;;;;21.52;14.98;;;;;;;;;;4860204;29;20467;-59
2022/12/14 10:44:23;;;;;;;24.50;14.48;;;;;;;;;;4860357;29;20057;-59
2022/12/14 10:47:16;;;;;;;22.23;13.60;;;;;;;;;;4860400;29;20045;-60
2022/12/14 10:49:56;;;;;;;22.02;14.70;;;;;;;;;;4831981;29;20088;-59
2022/12/14 10:52:25;;;;;;;26.25;15.45;;;;;;;;;;4860098;29;20145;-58
2022/12/14 10:54:53;;;;;;;23.80;14.75;;;;;;;;;;4859995;29;20053;-59
2022/12/14 10:57:20;;;;;;;23.65;14.35;;;;;;;;;;4843324;29;20494;-57
2022/12/14 10:59:47;;;;;;;22.95;15.07;;;;;;;;;;4860037;29;20045;-59
2022/12/14 11:02:35;;;;;;;26.80;14.57;;;;;;;;;;4859518;29;20140;-59
2022/12/14 11:05:10;;;;;;;22.58;14.63;;;;;;;;;;4859329;29;20170;-60
2022/12/14 11:07:38;;;;;;;23.70;15.20;;;;;;;;;;4859707;29;20064;-58
2022/12/14 11:10:14;;;;;;;21.15;14.25;;;;;;;;;;4843148;29;20125;-61
2022/12/14 11:12:51;;;;;;;22.45;15.40;;;;;;;;;;4859632;29;20487;-60
2022/12/14 11:15:44;;;;;;;26.02;15.43;;;;;;;;;;4859126;29;20524;-61
2022/12/14 11:18:10;;;;;;;21.55;15.27;;;;;;;;;;4856879;29;20471;-59
2022/12/14 11:20:48;;;;;;;22.50;14.85;;;;;;;;;;4843404;29;20086;-61
2022/12/14 11:23:19;;;;;;;24.52;15.55;;;;;;;;;;4859572;29;20046;-62
2022/12/14 11:25:47;;;;;;;24.63;16.45;;;;;;;;;;4858906;29;20042;-60
2022/12/14 11:28:15;;;;;;;26.30;15.82;;;;;;;;;;4859600;29;20392;-60
2022/12/14 11:31:01;;;;;;;25.83;15.32;;;;;;;;;;4862442;29;20038;-61
2022/12/14 11:33:34;;;;;;;24.30;16.02;;;;;;;;;;4846738;29;20050;-60
2022/12/14 11:36:01;;;;;;;19.55;14.27;;;;;;;;;;4863070;29;20098;-61
2022/12/14 11:38:28;;;;;;;26.05;16.15;;;;;;;;;;4846548;29;20057;-60
2022/12/14 11:40:56;;;;;;;27.77;17.50;;;;;;;;;;4862945;29;20540;-58
2022/12/14 11:43:22;;;;;;;27.83;16.05;;;;;;;;;;4862919;29;20054;-59
2022/12/14 11:45:49;;;;;;;26.42;16.25;;;;;;;;;;4862183;29;20562;-58
2022/12/14 11:48:18;;;;;;;22.77;14.68;;;;;;;;;;4862929;29;20456;-59
2022/12/14 11:50:45;;;;;;;28.27;16.40;;;;;;;;;;4846225;29;20073;-60
2022/12/14 11:53:13;;;;;;;23.90;16.00;;;;;;;;;;4846584;29;20469;-60
2022/12/14 11:55:43;;;;;;;25.50;17.27;;;;;;;;;;4862420;29;20518;-57
2022/12/14 11:58:16;;;;;;;39.20;23.92;;;;;;;;;;4862762;29;20102;-60
2022/12/14 12:00:51;;;;;;;24.13;16.63;;;;;;;;;;4862563;29;20053;-60
2022/12/14 12:03:17;;;;;;;27.60;16.38;;;;;;;;;;4846142;29;20105;-60
2022/12/14 12:05:45;;;;;;;23.77;15.27;;;;;;;;;;4845763;29;20132;-60
2022/12/14 12:08:20;;;;;;;29.10;17.33;;;;;;;;;;4862706;29;20109;-60
2022/12/14 12:10:48;;;;;;;25.80;16.92;;;;;;;;;;4862665;29;20053;-60
2022/12/14 12:13:28;;;;;;;24.60;16.45;;;;;;;;;;4862635;29;20045;-59
2022/12/14 12:15:55;;;;;;;26.80;16.30;;;;;;;;;;4862245;29;20049;-59
2022/12/14 12:18:22;;;;;;;22.45;15.00;;;;;;;;;;4862943;29;20055;-58
2022/12/14 12:20:55;;;;;;;21.63;15.40;;;;;;;;;;4862625;29;20480;-59
2022/12/14 12:23:23;;;;;;;23.80;15.90;;;;;;;;;;4845969;29;20054;-58
2022/12/14 12:25:51;;;;;;;23.50;15.02;;;;;;;;;;4845500;29;20049;-58
2022/12/14 12:28:39;;;;;;;23.70;15.20;;;;;;;;;;4846065;29;20575;-59
2022/12/14 12:31:08;;;;;;;26.45;16.88;;;;;;;;;;4862220;29;20082;-58
2022/12/14 12:33:44;;;;;;;24.13;15.63;;;;;;;;;;4846206;29;20045;-57
2022/12/14 12:36:10;;;;;;;24.60;15.88;;;;;;;;;;4861615;29;20056;-57
2022/12/14 12:38:40;;;;;;;21.27;14.32;;;;;;;;;;4862262;29;20090;-58
2022/12/14 12:41:06;;;;;;;21.33;14.07;;;;;;;;;;4861558;29;20050;-56
2022/12/14 12:43:45;;;;;;;21.35;14.75;;;;;;;;;;4862689;29;20049;-57
2022/12/14 12:46:17;;;;;;;21.15;14.50;;;;;;;;;;4861419;29;20077;-58
2022/12/14 12:48:50;;;;;;;21.90;14.95;;;;;;;;;;4862038;29;20574;-57
2022/12/14 12:51:28;;;;;;;21.02;13.85;;;;;;;;;;4861903;29;20064;-57
2022/12/14 12:53:57;;;;;;;23.42;15.02;;;;;;;;;;4862210;29;20049;-58
2022/12/14 12:56:42;;;;;;;19.83;14.45;;;;;;;;;;4861245;29;20050;-58
2022/12/14 12:59:14;;;;;;;21.23;14.20;;;;;;;;;;4861813;29;20049;-58
2022/12/14 13:01:42;;;;;;;24.45;15.93;;;;;;;;;;4861766;29;20415;-57
2022/12/14 13:04:18;;;;;;;20.92;15.52;;;;;;;;;;4861922;29;20045;-58
2022/12/14 13:06:51;;;;;;;23.65;14.43;;;;;;;;;;4861331;29;20046;-58
2022/12/14 13:09:27;;;;;;;22.38;15.10;;;;;;;;;;4861510;29;20045;-60
2022/12/14 13:11:54;;;;;;;23.02;14.65;;;;;;;;;;4844848;29;20464;-60
2022/12/14 13:14:26;;;;;;;26.00;16.15;;;;;;;;;;4861410;29;20046;-60
2022/12/14 13:16:53;;;;;;;22.33;15.18;;;;;;;;;;4860779;29;20218;-61
2022/12/14 13:19:30;;;;;;;21.13;14.98;;;;;;;;;;4861488;29;20073;-60
2022/12/14 13:22:21;;;;;;;22.83;13.88;;;;;;;;;;4861064;29;20106;-60
2022/12/14 13:24:49;;;;;;;23.58;15.23;;;;;;;;;;4844847;29;20045;-60
2022/12/14 13:27:33;;;;;;;28.23;16.27;;;;;;;;;;4861075;29;20041;-60
2022/12/14 13:30:18;;;;;;;27.27;16.48;;;;;;;;;;4861369;29;20045;-60
2022/12/14 13:32:44;;;;;;;21.25;14.13;;;;;;;;;;4861386;29;20620;-59
2022/12/14 13:35:40;;;;;;;24.08;14.57;;;;;;;;;;4860631;29;20127;-60
2022/12/14 13:38:13;;;;;;;20.58;13.43;;;;;;;;;;4795073;29;20078;-59
2022/12/14 13:40:58;;;;;;;21.88;13.05;;;;;;;;;;4861356;29;20053;-59
2022/12/14 13:43:34;;;;;;;20.15;12.77;;;;;;;;;;4861212;29;20109;-61
2022/12/14 13:46:15;;;;;;;22.67;13.75;;;;;;;;;;4860628;29;20049;-60
2022/12/14 13:48:43;;;;;;;24.73;14.30;;;;;;;;;;4861365;29;20503;-59
2022/12/14 13:51:19;;;;;;;22.50;14.48;;;;;;;;;;4861452;29;20037;-59
2022/12/14 13:53:47;;;;;;;20.83;14.55;;;;;;;;;;4861504;29;20049;-58
2022/12/14 13:56:19;;;;;;;21.05;13.88;;;;;;;;;;4864205;29;20078;-58
2022/12/14 13:58:47;;;;;;;19.85;14.25;;;;;;;;;;4866256;29;20101;-57
2022/12/14 14:01:15;;;;;;;23.08;15.38;;;;;;;;;;4865110;29;20248;-59
2022/12/14 14:04:04;;;;;;;23.13;14.95;;;;;;;;;;4867291;29;20046;-56
2022/12/14 14:06:41;;;;;;;23.25;15.20;;;;;;;;;;4855996;29;20109;-60
2022/12/14 14:09:27;;;;;;;23.65;15.20;;;;;;;;;;4850556;29;20073;-59
2022/12/14 14:11:56;;;;;;;24.60;15.68;;;;;;;;;;4868725;29;20053;-60
2022/12/14 14:14:22;;;;;;;23.52;15.20;;;;;;;;;;4868155;29;20050;-58
2022/12/14 14:16:53;;;;;;;24.48;14.90;;;;;;;;;;4866866;29;20105;-57
2022/12/14 14:19:21;;;;;;;23.20;15.30;;;;;;;;;;4850033;29;20064;-57
2022/12/14 14:22:06;;;;;;;24.55;15.57;;;;;;;;;;4866078;29;20219;-58
2022/12/14 14:24:51;;;;;;;24.48;15.80;;;;;;;;;;4866177;29;20498;-58
2022/12/14 14:27:19;;;;;;;26.85;16.08;;;;;;;;;;4865530;29;20054;-57
2022/12/14 14:29:46;;;;;;;22.45;15.05;;;;;;;;;;4866011;29;20050;-58
2022/12/14 14:32:29;;;;;;;23.50;15.68;;;;;;;;;;4865273;29;20038;-58
2022/12/14 14:34:56;;;;;;;22.35;15.02;;;;;;;;;;4848771;29;20074;-59
2022/12/14 14:37:33;;;;;;;24.17;15.10;;;;;;;;;;4864583;29;20045;-59
2022/12/14 14:40:19;;;;;;;24.38;15.75;;;;;;;;;;4864112;29;20049;-60
2022/12/14 14:43:15;;;;;;;24.73;15.38;;;;;;;;;;4864310;29;20045;-60
2022/12/14 14:45:47;;;;;;;22.40;14.50;;;;;;;;;;4863299;29;20053;-59
2022/12/14 14:48:22;;;;;;;23.60;14.52;;;;;;;;;;4847139;29;20045;-59
2022/12/14 14:51:00;;;;;;;26.65;16.35;;;;;;;;;;4847291;29;20065;-60
2022/12/14 14:53:28;;;;;;;25.85;16.55;;;;;;;;;;4863852;29;20042;-60
2022/12/14 14:56:12;;;;;;;22.70;15.35;;;;;;;;;;4861993;29;20061;-60
2022/12/14 14:58:39;;;;;;;23.58;15.40;;;;;;;;;;4861990;29;20079;-60